Walther Herwig III — DBFR — position and weather

sailwx.info

Track history (hours):
 
Tides and Currents Weather Stations Pressure Air Temp Water Temp Dewpoint Dewpoint Depression Visibility Wind Speed Wind Dir Waves Ship Positions

Oceanographic research ship Walther Herwig III (Germany)

Detailed information on ship capabilities available from University of Delaware's Ocean Information Center.

Last reported at 2019-Oct-14 09:00 UTC. Time now 2019-Oct-14 10:22 UTC.
Position N 61°48' W 041°30'.

Length 63.2 m; beam 14.8 m; draft 5.5 m.

Type: Fishing. MMSI: 211215500.

Wind from 340 at 21 knots

Barometer 998.9 mb
Air temperature 2.7 ° C
Dewpoint -2.9 ° C
Water temperature 3.7 ° C

Date/timePositionNaut miles runAvg speedWind from/ knotsBaromVisibWave heightAir tempDewpointWater temp
2019-Oct-14 09:00N 61°48' W 041°30'1313.3 340 / 21998.9 2.7-2.9 3.7
2019-Oct-14 08:00N 62°00' W 041°18'6 6.0 340 / 21998.0 2.6-2.9 2.2
2019-Oct-14 07:00N 62°06' W 041°18'0 0.0 330 / 19997.7 2.8-2.7 2.9
2019-Oct-14 06:00N 62°06' W 041°18'0 0.0 330 / 19997.6 2.6-2.9 2.2
2019-Oct-14 05:00N 62°06' W 041°18'3 1.4 360 / 25996.9 3.2-5.3 2.2
2019-Oct-14 03:00N 62°06' W 041°24'0 0.0 350 / 25997.2 2.7-3.9 2.2
2019-Oct-14 02:00N 62°06' W 041°24'0 0.0 360 / 31997.0 2.5-5.4 2.4
2019-Oct-14 01:00N 62°06' W 041°24'0 0.0 360 / 33996.8 2.1-4.7 2.6
2019-Oct-14 00:00N 62°06' W 041°24'0 0.0 360 / 33996.2 1.9-4.8 2.6
2019-Oct-13 23:00N 62°06' W 041°24'1514.6 360 / 27996.2 1.8-3.9 2.8
2019-Oct-13 22:00N 62°18' W 041°06'1010.3 010 / 29995.6 1.6-3.1 4.8
2019-Oct-13 21:00N 62°24' W 040°48'1514.6 010 / 27995.3 1.3-2.7 5.6
2019-Oct-13 20:00N 62°36' W 040°30'1514.6 010 / 29995.0 0.9-1.8 7.6
2019-Oct-13 19:00N 62°48' W 040°12'1514.5 010 / 27995.1 0.4-1.5 7.5
2019-Oct-13 18:00N 63°00' W 039°54'1010.1 010 / 25995.7 -0.1-1.1 7.7
2019-Oct-13 17:00N 63°06' W 039°36'1313.2 360 / 23996.5 0.7-0.4 7.7
2019-Oct-13 16:00N 63°18' W 039°24'1010.1 360 / 25997.0 0.4-0.4 7.8
2019-Oct-13 15:00N 63°24' W 039°06'7 6.6 340 / 23997.4 0.7-0.4 7.6
2019-Oct-13 14:00N 63°30' W 039°00'3 2.7 320 / 23999.4 0.5-1.0 7.5
2019-Oct-13 13:00N 63°30' W 038°54'1110.7 330 / 23999.2 0.9-1.4 7.6
2019-Oct-13 12:00N 63°30' W 038°30'8 8.0 320 / 16999.8 1.3-2.3 7.7
2019-Oct-13 11:00N 63°36' W 038°18'1313.3 300 / 141000.1 1.9-3.1 7.7
2019-Oct-13 10:00N 63°36' W 037°48'8 8.0 270 / 101000.6 1.5-3.8 7.8
2019-Oct-13 09:00N 63°36' W 037°30'7 3.3 270 / 81001.1 1.4-4.3 7.7
2019-Oct-13 07:00N 63°42' W 037°24'0 0.0 290 / 81001.8 2.1-4.2 7.5
2019-Oct-13 06:00N 63°42' W 037°24'0 0.0 310 / 81002.4 2.5-2.9 7.8
2019-Oct-13 05:00N 63°42' W 037°24'7 6.6 350 / 101002.7 2.1-1.0 7.7
2019-Oct-13 04:00N 63°48' W 037°18'0 0.0 340 / 141002.8 1.9-0.1 7.5
2019-Oct-13 03:00N 63°48' W 037°18'0 0.0 340 / 101003.2 2.9 0.6 7.4
2019-Oct-13 02:00N 63°48' W 037°18'6 6.0 310 / 121003.9 3.1 0.7 7.3
2019-Oct-13 01:00N 63°54' W 037°18'0 0.0 330 / 101004.1 3.4 1.6 7.2
2019-Oct-13 00:00N 63°54' W 037°18'1212.3 330 / 141004.1 3.1 0.5 7.5
2019-Oct-12 23:00N 64°06' W 037°12'1212.0 310 / 121004.1 2.3 0.9 5.9
2019-Oct-12 22:00N 64°18' W 037°12'1212.3 330 / 61004.4 2.6-0.6 5.4
2019-Oct-12 21:00N 64°30' W 037°06'1212.3 040 / 41004.4 2.7-0.8 5.8
2019-Oct-12 20:00N 64°42' W 037°00'1212.0 060 / 161004.5 3.3-1.7 6.2
2019-Oct-12 19:00N 64°54' W 037°00'1212.3 060 / 191004.6 2.2-1.0 7.4
2019-Oct-12 18:00N 65°06' W 036°54'10 9.7 050 / 191004.9 0.9-0.2 3.2
2019-Oct-12 17:00N 65°12' W 036°36'5 5.0 040 / 161005.2 0.5-0.3 4.5
2019-Oct-12 16:00N 65°12' W 036°24'0 0.0 040 / 211005.2 0.9-0.2 5.0
2019-Oct-12 15:00N 65°12' W 036°24'0 0.0 030 / 191005.4 0.9-0.3 4.9
2019-Oct-12 14:00N 65°12' W 036°24'0 0.0 050 / 161006.0 3.2 1.8 4.7
2019-Oct-12 13:00N 65°12' W 036°24'7 6.5 040 / 161006.4 3.1 0.5 4.9
2019-Oct-12 12:00N 65°06' W 036°18'13 6.5 020 / 141005.9 2.0-0.0 3.6
2019-Oct-12 10:00N 64°54' W 036°06'3 2.5 360 / 41006.6 2.2-0.9 3.4
2019-Oct-12 09:00N 64°54' W 036°00'3 2.5 350 / 41007.0 1.8-0.5 2.5
2019-Oct-12 08:00N 64°54' W 036°06'3 2.5 350 / 41007.2 1.7-0.2 5.3
2019-Oct-12 07:00N 64°54' W 036°00'3 2.5 050 / 61007.7 1.5-0.3 3.0
2019-Oct-12 06:00N 64°54' W 036°06'0 0.0 1007.9 2.5-0.5 4.9
2019-Oct-12 05:00N 64°54' W 036°06'0 0.0 150 / 41008.4 2.4-0.3 8.0
2019-Oct-12 04:00N 64°54' W 036°06'6 6.0 1009.2 2.1 0.1 7.9
2019-Oct-12 03:00N 64°48' W 036°06'3 2.6 310 / 41010.2 1.9 0.6 7.8
2019-Oct-12 02:00N 64°48' W 036°12'0 0.0 280 / 101011.2 2.3 0.3 7.6
2019-Oct-12 01:00N 64°48' W 036°12'0 0.0 260 / 101011.9 2.2 0.8 7.3
2019-Oct-12 00:00N 64°48' W 036°12'8 7.9 270 / 141012.2 2.3-0.0 6.9
2019-Oct-11 23:00N 64°42' W 036°00'1211.9 1012.5 4.0-1.6 7.1
2019-Oct-11 22:00N 64°36' W 035°36'8 7.9 080 / 81013.0 4.4-2.4 8.0
2019-Oct-11 21:00N 64°30' W 035°24'8 7.9 030 / 81013.5 4.2-3.2 8.1
2019-Oct-11 20:00N 64°24' W 035°36'8 7.9 020 / 81013.9 4.4-3.5 8.1
2019-Oct-11 19:00N 64°18' W 035°48'5 5.2 030 / 81013.8 4.2-3.0 8.1
2019-Oct-11 18:00N 64°18' W 036°00'0 0.0 020 / 81014.6 4.1-2.3 8.1
2019-Oct-11 17:00N 64°18' W 036°00'1212.0 020 / 81015.2 4.0-2.1 8.0
2019-Oct-11 16:00N 64°24' W 036°24'1010.4 020 / 81015.6 4.0-2.0 7.7
2019-Oct-11 15:00N 64°24' W 036°48'1010.4 360 / 81016.3 4.0-1.8 7.1
2019-Oct-11 14:00N 64°24' W 037°12'0 0.0 340 / 61017.0 4.0-2.6 6.9
2019-Oct-11 13:00N 64°24' W 037°12'0 0.0 310 / 61017.2 3.7-2.3 6.9
2019-Oct-11 12:00N 64°24' W 037°12'3 2.6 340 / 41017.2 4.0-1.7 6.4
2019-Oct-11 11:00N 64°24' W 037°18'3 2.6 340 / 61017.3 3.6-2.2 5.6
2019-Oct-11 10:00N 64°24' W 037°12'0 0.0 330 / 81017.3 3.7-1.3 6.3
2019-Oct-11 09:00N 64°24' W 037°12'3 2.6 340 / 81017.2 3.7-1.3 6.6
2019-Oct-11 08:00N 64°24' W 037°18'3 1.3 350 / 81017.4 3.3-1.6 5.7
2019-Oct-11 06:00N 64°24' W 037°12'7 6.5 340 / 101017.0 3.7-1.9 6.5
2019-Oct-11 05:00N 64°18' W 037°18'0 0.0 360 / 101016.8 3.8-3.6 5.5
2019-Oct-11 04:00N 64°18' W 037°18'7 6.5 350 / 121017.0 3.8-1.8 5.9
2019-Oct-11 03:00N 64°12' W 037°24'6 6.0 360 / 141017.1 4.0-1.1 4.7
2019-Oct-11 02:00N 64°06' W 037°24'0 0.0 350 / 121017.0 4.0-0.3 5.4
2019-Oct-11 01:00N 64°06' W 037°24'7 6.5 010 / 171017.0 4.5-0.7 6.6
2019-Oct-11 00:00N 64°00' W 037°30'6 6.0 360 / 211016.6 4.4-0.5 6.1
2019-Oct-10 23:00N 63°54' W 037°30'0 0.0 010 / 231016.2 4.4-1.4 6.9
2019-Oct-10 22:00N 63°54' W 037°30'6 6.0 010 / 231015.8 4.4-1.1 6.9
2019-Oct-10 21:00N 63°48' W 037°30'0 0.0 020 / 231015.5 4.6-1.8 6.6
2019-Oct-10 20:00N 63°48' W 037°30'6 6.0 030 / 251015.1 5.0-0.9 7.8
2019-Oct-10 19:00N 63°42' W 037°30'7 6.6 030 / 271014.1 4.7 0.4 8.0
2019-Oct-10 18:00N 63°36' W 037°36'3 2.7 030 / 211014.0 5.4-0.7 8.1
2019-Oct-10 17:00N 63°36' W 037°42'3 2.7 020 / 191013.7 4.9 0.2 8.1
2019-Oct-10 16:00N 63°36' W 037°48'1010.0 020 / 211013.4 5.7 0.8 7.9
2019-Oct-10 15:00N 63°42' W 038°06'7 6.6 030 / 141013.4 5.5 2.2 7.2
2019-Oct-10 14:00N 63°48' W 038°00'1212.2 060 / 211013.5 4.1 0.4 7.3
2019-Oct-10 13:00N 63°54' W 038°24'3 2.6 040 / 141013.4 5.2 1.0 7.7
2019-Oct-10 12:00N 63°54' W 038°18'8 7.9 010 / 161013.0 5.1 1.4 7.6
2019-Oct-10 11:00N 63°54' W 038°36'3 1.3 020 / 121012.7 4.9 1.2 7.7
2019-Oct-10 09:00N 63°54' W 038°42'10 3.3 020 / 121011.8 4.8 0.7 7.7
2019-Oct-10 06:00N 63°48' W 038°24'7 6.6 010 / 141010.7 4.8 1.8 7.4
2019-Oct-10 05:00N 63°42' W 038°30'3 2.7 010 / 121010.8 5.2 1.7 7.7
2019-Oct-10 04:00N 63°42' W 038°36'7 2.2 010 / 121010.9 5.1 1.9 7.8
2019-Oct-10 01:00N 63°36' W 038°42'3 2.7 010 / 141011.6 5.0 1.9 8.0
2019-Oct-10 00:00N 63°36' W 038°48'6 6.0 010 / 141011.6 5.1 1.1 8.0
2019-Oct-09 23:00N 63°30' W 038°48'3 2.7 020 / 161011.7 5.3 1.4 8.0
2019-Oct-09 22:00N 63°30' W 038°54'24 6.0 010 / 161011.8 5.5 2.0 7.9
2019-Oct-09 18:00N 63°48' W 038°18'8 8.0 020 / 211011.8 5.0 0.8 7.6
2019-Oct-09 17:00N 63°54' W 038°06'0 0.0 010 / 291011.8 4.9 1.0 6.9
2019-Oct-09 16:00N 63°54' W 038°06'3 2.6 010 / 291011.8 5.3 1.2 7.1
2019-Oct-09 15:00N 63°54' W 038°12'0 0.0 010 / 291011.9 5.2 1.9 7.5
2019-Oct-09 14:00N 63°54' W 038°12'0 0.0 020 / 291011.7 5.4 1.8 7.8
2019-Oct-09 13:00N 63°54' W 038°12'3 2.6 010 / 311011.3 5.4 2.1 7.7
2019-Oct-09 12:00N 63°54' W 038°18'0 0.0 010 / 291010.8 5.3 2.7 7.7
2019-Oct-09 11:00N 63°54' W 038°18'0 0.0 010 / 291010.4 5.5 3.1 7.7
2019-Oct-09 10:00N 63°54' W 038°18'0 0.0 360 / 291009.9 5.2 2.7 7.7
2019-Oct-09 09:00N 63°54' W 038°18'3 2.6 010 / 291009.6 4.9 2.8 7.4
2019-Oct-09 08:00N 63°54' W 038°24'0 0.0 010 / 371009.0 4.3 2.0 7.6
2019-Oct-09 07:00N 63°54' W 038°24'7 6.6 020 / 331009.5 4.4 2.3 7.6
2019-Oct-09 06:00N 63°48' W 038°30'0 0.0 020 / 271009.3 4.7 2.5 7.5
2019-Oct-09 05:00N 63°48' W 038°30'0 0.0 360 / 171008.8 5.5 3.4 7.7
2019-Oct-09 04:00N 63°48' W 038°30'3 2.6 360 / 161008.4 5.5 3.9 7.8
2019-Oct-09 03:00N 63°48' W 038°36'3 2.6 350 / 191008.0 5.1 2.4 7.7
2019-Oct-09 02:00N 63°48' W 038°42'0 0.0 350 / 231007.6 5.3 0.4 7.7
2019-Oct-09 01:00N 63°48' W 038°42'1212.2 350 / 211006.7 5.3-0.2 7.7
2019-Oct-09 00:00N 63°54' W 038°18'10 9.9 350 / 191006.1 5.3-0.2 7.8
2019-Oct-08 23:00N 64°00' W 038°00'1414.3 340 / 171005.8 4.6 1.0 5.9
2019-Oct-08 22:00N 64°12' W 037°42'10 9.9 350 / 171004.9 5.3 3.0 5.3
2019-Oct-08 21:00N 64°18' W 037°24'1615.9 360 / 171004.4 5.7 2.4 6.1
2019-Oct-08 20:00N 64°30' W 037°00'10 9.8 340 / 161003.3 5.8 1.7 6.2
2019-Oct-08 19:00N 64°36' W 036°42'10 9.8 340 / 171002.5 6.5 2.6 6.3
2019-Oct-08 18:00N 64°42' W 036°24'1615.8 320 / 191001.0 6.5 1.5 7.2
2019-Oct-08 17:00N 64°54' W 036°00'10 9.7 340 / 161000.4 5.3 1.1 7.4
2019-Oct-08 16:00N 65°00' W 035°42'10 9.7 350 / 171000.3 5.3-0.0 4.2
2019-Oct-08 15:00N 65°06' W 035°24'1414.2 360 / 141000.0 5.6 0.7 2.9
2019-Oct-08 14:00N 65°18' W 035°06'3 2.5 360 / 10999.2 4.5 1.0 2.6
2019-Oct-08 13:00N 65°18' W 035°12'5 5.0 340 / 10999.0 3.7 1.6 2.6
2019-Oct-08 12:00N 65°18' W 035°00'1211.7 330 / 12998.8 5.5 1.7 6.0
2019-Oct-08 11:00N 65°24' W 034°36'5 5.0 350 / 16998.1 5.8 2.5 5.7
2019-Oct-08 10:00N 65°24' W 034°24'6 6.5 360 / 16997.6 6.2 2.3 7.6
2019-Oct-08 09:00N 65°30' W 034°18'0 0.0 010 / 12997.4 5.7 2.3 7.1
2019-Oct-08 08:00N 65°30' W 034°18'2 2.5 010 / 16997.0 5.1 1.9 7.1
2019-Oct-08 07:00N 65°30' W 034°24'0 0.0 010 / 17996.7 5.2 2.2 7.0
2019-Oct-08 06:00N 65°30' W 034°24'2 2.5 030 / 17996.3 5.6 2.6 6.9
2019-Oct-08 05:00N 65°30' W 034°18'2 2.5 040 / 17996.1 5.4 3.4 7.3
2019-Oct-08 04:00N 65°30' W 034°12'5 5.0 030 / 21995.3 5.7 3.6 7.8
2019-Oct-08 03:00N 65°30' W 034°00'5 5.0 030 / 23995.1 5.8 3.9 7.8
2019-Oct-08 02:00N 65°30' W 033°48'6 6.5 030 / 27994.5 5.9 3.9 7.6
2019-Oct-08 01:00N 65°24' W 033°42'6 6.0 020 / 25994.6 6.0 4.2 7.8
2019-Oct-08 00:00N 65°30' W 033°42'5 5.0 020 / 23994.5 5.8 3.4 7.8
2019-Oct-07 23:00N 65°30' W 033°54'2 2.5 010 / 21994.6 6.1 2.4 7.9
2019-Oct-07 22:00N 65°30' W 034°00'2 2.5 350 / 19994.7 6.1 2.0 7.8
2019-Oct-07 21:00N 65°30' W 034°06'6 6.0 350 / 17995.0 5.9 1.6 7.8
2019-Oct-07 20:00N 65°24' W 034°06'8 7.8 350 / 19994.9 5.6 2.0 7.9
2019-Oct-07 19:00N 65°30' W 033°54'0 0.0 360 / 19995.0 4.6 2.6 7.7
2019-Oct-07 18:00N 65°30' W 033°54'7 7.5 360 / 23994.9 4.0 2.6 7.7
2019-Oct-07 17:00N 65°30' W 033°36'0 0.0 360 / 21994.7 4.1 3.2 7.8
2019-Oct-07 16:00N 65°30' W 033°36'13 6.5 350 / 17994.7 5.0 3.3 7.9
2019-Oct-07 14:00N 65°18' W 033°24'8 7.8 360 / 19995.5 6.0 4.2 8.3
2019-Oct-07 13:00N 65°24' W 033°12'1010.0 010 / 21995.9 6.6 4.5 8.6
2019-Oct-07 12:00N 65°24' W 032°48'6 6.5 020 / 14996.0 6.6 4.4 8.7
2019-Oct-07 11:00N 65°30' W 032°42'5 2.5 030 / 21996.5 6.5 4.4 8.6
2019-Oct-07 09:00N 65°30' W 032°30'2 1.2 030 / 21996.7 5.1 4.4 8.6
2019-Oct-07 07:00N 65°30' W 032°24'6 6.5 010 / 25997.6 5.2 5.1 8.6
2019-Oct-07 06:00N 65°36' W 032°18'8 7.8 010 / 19998.1 5.2 4.9 8.4
2019-Oct-07 05:00N 65°42' W 032°06'6 6.5 010 / 17998.4 5.8 5.8 8.2
2019-Oct-07 04:00N 65°48' W 032°00'8 7.8 030 / 17999.3 6.0 5.8 8.2
2019-Oct-07 03:00N 65°54' W 031°48'2 2.4 030 / 161000.1 6.0 5.8 5.9
2019-Oct-07 02:00N 65°54' W 031°42'8 7.7 040 / 161000.3 6.2 5.6 5.5
2019-Oct-07 01:00N 66°00' W 031°30'5 4.9 040 / 141000.5 6.8 6.5 5.8
2019-Oct-07 00:00N 66°00' W 031°18'9 9.5 030 / 161000.7 6.4 5.9 5.7
2019-Oct-06 23:00N 65°54' W 031°00'9 9.5 050 / 141000.8 7.4 6.7 7.0
2019-Oct-06 22:00N 65°48' W 030°42'2110.3 070 / 141000.8 8.2 7.3 7.8
2019-Oct-06 20:00N 65°30' W 030°18'0 0.0 080 / 141000.4 8.8 7.1 8.4
2019-Oct-06 19:00N 65°30' W 030°18'2 2.5 080 / 141000.5 8.9 7.7 8.6
2019-Oct-06 18:00N 65°30' W 030°12'5 5.0 100 / 121000.5 9.9 7.9 8.5
2019-Oct-06 17:00N 65°30' W 030°00'6 6.5 120 / 121000.3 9.2 7.4 7.4
2019-Oct-06 16:00N 65°36' W 030°06'2 2.5 120 / 121000.4 9.0 7.4 8.4
2019-Oct-06 15:00N 65°36' W 030°00'10 9.5 130 / 161000.6 9.2 7.3 8.4
2019-Oct-06 14:00N 65°42' W 029°42'0 0.0 120 / 161000.7 9.1 7.6 8.6
2019-Oct-06 13:00N 65°42' W 029°42'6 6.0 110 / 121000.3 8.9 7.3 7.6
2019-Oct-06 12:00N 65°48' W 029°42'0 0.0 120 / 141000.2 8.8 7.5 8.3
2019-Oct-06 11:00N 65°48' W 029°42'9 9.5 130 / 14999.9 9.1 7.7 8.2
2019-Oct-06 10:00N 65°54' W 029°24'10 9.8 130 / 16999.8 9.1 7.6 8.1
2019-Oct-06 09:00N 65°54' W 029°00'1413.6 130 / 19999.5 9.0 8.0 6.1
2019-Oct-06 08:00N 66°00' W 028°30'10 9.8 140 / 17999.5 9.1 7.8 8.5
2019-Oct-06 07:00N 66°00' W 028°06'1413.6 140 / 17999.4 8.9 8.0 8.6
2019-Oct-06 06:00N 66°06' W 027°36'1212.2 130 / 17999.0 8.7 8.1 7.9
2019-Oct-06 05:00N 66°06' W 027°06'1111.4 140 / 17999.0 7.3 6.8 3.8
2019-Oct-06 04:00N 66°12' W 026°42'10 9.7 130 / 14999.1 8.0 7.5 6.4
2019-Oct-06 03:00N 66°12' W 026°18'1313.5 160 / 21998.5 8.1 7.8 8.5
2019-Oct-06 02:00N 66°18' W 025°48'10 9.6 150 / 16998.1 9.1 8.1 8.4
2019-Oct-06 01:00N 66°18' W 025°24'1111.3 140 / 12998.0 9.2 8.1 8.7
2019-Oct-06 00:00N 66°24' W 025°00'1212.0 150 / 10998.0 8.8 8.2 9.1
2019-Oct-05 23:00N 66°24' W 024°30'1111.3 130 / 8997.4 9.6 7.6 8.7
2019-Oct-05 22:00N 66°30' W 024°06'1212.0 120 / 16997.2 9.8 6.6 8.8
2019-Oct-05 21:00N 66°30' W 023°36'1212.0 110 / 16997.3 10.3 6.3 8.5
2019-Oct-05 20:00N 66°30' W 023°06'1212.0 100 / 19998.0 10.6 5.9 8.9
2019-Oct-05 19:00N 66°30' W 022°36'1212.0 120 / 12998.7 8.6 5.9 8.4
2019-Oct-05 18:00N 66°30' W 022°06'1111.3 110 / 17999.0 8.8 5.1 8.1
2019-Oct-05 17:00N 66°24' W 021°42'10 9.6 090 / 16999.3 8.5 5.2 7.8
2019-Oct-05 16:00N 66°24' W 021°18'1111.3 100 / 16999.6 8.7 4.3 6.8
2019-Oct-05 15:00N 66°18' W 020°54'6 6.5 100 / 17999.9 9.0 3.7 6.4
2019-Oct-05 14:00N 66°12' W 021°00'6 6.0 090 / 161000.0 8.4 3.9 6.6
2019-Oct-05 13:00N 66°18' W 021°00'0 0.0 080 / 141000.4 9.1 3.2 6.5
2019-Oct-05 12:00N 66°18' W 021°00'2 2.4 060 / 141001.0 8.6 2.6 6.5
2019-Oct-05 11:00N 66°18' W 020°54'0 0.0 060 / 101001.7 8.2 3.2 6.6
2019-Oct-05 10:00N 66°18' W 020°54'6 6.5 120 / 61002.2 8.7 2.0 6.5
2019-Oct-05 09:00N 66°12' W 021°00'6 6.0 110 / 121001.8 9.1-0.0 6.8
2019-Oct-05 08:00N 66°18' W 021°00'0 0.0 090 / 121001.9 7.8 2.4 6.6
2019-Oct-05 07:00N 66°18' W 021°00'0 0.0 080 / 81002.3 8.8-0.4 6.5
2019-Oct-05 06:00N 66°18' W 021°00'2 2.4 080 / 101002.4 7.9 2.8 6.5
2019-Oct-05 05:00N 66°18' W 020°54'5 4.8 080 / 161002.7 8.5 0.7 6.3
2019-Oct-05 04:00N 66°18' W 020°42'1212.1 090 / 141003.5 8.1 3.3 6.8
2019-Oct-05 03:00N 66°18' W 020°12'1212.1 090 / 61004.1 7.9 3.2 7.1
2019-Oct-05 02:00N 66°18' W 019°42'10 9.6 160 / 41005.6 8.3 1.5 7.1
2019-Oct-05 01:00N 66°18' W 019°18'1212.1 130 / 161005.7 8.9 2.0 7.1
2019-Oct-05 00:00N 66°18' W 018°48'1212.1 150 / 371006.5 8.3 2.0 7.0
2019-Oct-04 23:00N 66°18' W 018°18'1111.3 110 / 291008.0 8.2 2.7 6.9
2019-Oct-04 22:00N 66°24' W 017°54'1212.0 140 / 291009.8 7.9 2.8 7.2
2019-Oct-04 21:00N 66°24' W 017°24'1313.4 120 / 251011.8 7.4 2.5 7.3
2019-Oct-04 20:00N 66°30' W 016°54'1111.3 120 / 161013.2 7.4 2.0 7.3
2019-Oct-04 19:00N 66°36' W 016°30'1313.3 120 / 231013.8 7.1 3.4 7.2
2019-Oct-04 18:00N 66°42' W 016°00'1111.2 130 / 271014.8 7.4 4.1 6.9
2019-Oct-04 17:00N 66°36' W 015°36'1211.9 140 / 271015.3 7.3 3.7 7.2
2019-Oct-04 16:00N 66°36' W 015°06'1211.9 150 / 271016.1 7.5 2.8 7.1
2019-Oct-04 15:00N 66°36' W 014°36'1313.4 150 / 271017.0 7.5 2.0 7.1
2019-Oct-04 14:00N 66°30' W 014°06'1312.9 140 / 251017.7 10.7 2.5 7.1
2019-Oct-04 13:00N 66°18' W 013°54'1312.9 140 / 211018.6 7.4 2.8 7.2
2019-Oct-04 12:00N 66°06' W 013°42'1313.0 150 / 171019.4 7.5 3.3 7.1
2019-Oct-04 11:00N 65°54' W 013°30'1313.0 150 / 191020.0 7.4 1.8 7.2
2019-Oct-04 10:00N 65°42' W 013°18'1313.0 140 / 171020.1 7.4 2.6 7.1
2019-Oct-04 09:00N 65°30' W 013°06'   140 / 171020.0 7.7 1.0 7.1
Track history (hours):
 
Tides and Currents Weather Stations Pressure Air Temp Water Temp Dewpoint Dewpoint Depression Visibility Wind Speed Wind Dir Waves Ship Positions

Oceanographic research ship Walther Herwig III (Germany)

Detailed information on ship capabilities available from University of Delaware's Ocean Information Center.

Last reported at 2019-Oct-14 09:00 UTC. Time now 2019-Oct-14 10:22 UTC.
Position N 61°48' W 041°30'.

Length 63.2 m; beam 14.8 m; draft 5.5 m.

Type: Fishing. MMSI: 211215500.

Wind from 340 at 21 knots

Barometer 998.9 mb
Air temperature 2.7 ° C
Dewpoint -2.9 ° C
Water temperature 3.7 ° C

Date/timePositionNaut miles runAvg speedWind from/ knotsBaromVisibWave heightAir tempDewpointWater temp
2019-Oct-14 09:00N 61°48' W 041°30'1313.3 340 / 21998.9 2.7-2.9 3.7
2019-Oct-14 08:00N 62°00' W 041°18'6 6.0 340 / 21998.0 2.6-2.9 2.2
2019-Oct-14 07:00N 62°06' W 041°18'0 0.0 330 / 19997.7 2.8-2.7 2.9
2019-Oct-14 06:00N 62°06' W 041°18'0 0.0 330 / 19997.6 2.6-2.9 2.2
2019-Oct-14 05:00N 62°06' W 041°18'3 1.4 360 / 25996.9 3.2-5.3 2.2
2019-Oct-14 03:00N 62°06' W 041°24'0 0.0 350 / 25997.2 2.7-3.9 2.2
2019-Oct-14 02:00N 62°06' W 041°24'0 0.0 360 / 31997.0 2.5-5.4 2.4
2019-Oct-14 01:00N 62°06' W 041°24'0 0.0 360 / 33996.8 2.1-4.7 2.6
2019-Oct-14 00:00N 62°06' W 041°24'0 0.0 360 / 33996.2 1.9-4.8 2.6
2019-Oct-13 23:00N 62°06' W 041°24'1514.6 360 / 27996.2 1.8-3.9 2.8
2019-Oct-13 22:00N 62°18' W 041°06'1010.3 010 / 29995.6 1.6-3.1 4.8
2019-Oct-13 21:00N 62°24' W 040°48'1514.6 010 / 27995.3 1.3-2.7 5.6
2019-Oct-13 20:00N 62°36' W 040°30'1514.6 010 / 29995.0 0.9-1.8 7.6
2019-Oct-13 19:00N 62°48' W 040°12'1514.5 010 / 27995.1 0.4-1.5 7.5
2019-Oct-13 18:00N 63°00' W 039°54'1010.1 010 / 25995.7 -0.1-1.1 7.7
2019-Oct-13 17:00N 63°06' W 039°36'1313.2 360 / 23996.5 0.7-0.4 7.7
2019-Oct-13 16:00N 63°18' W 039°24'1010.1 360 / 25997.0 0.4-0.4 7.8
2019-Oct-13 15:00N 63°24' W 039°06'7 6.6 340 / 23997.4 0.7-0.4 7.6
2019-Oct-13 14:00N 63°30' W 039°00'3 2.7 320 / 23999.4 0.5-1.0 7.5
2019-Oct-13 13:00N 63°30' W 038°54'1110.7 330 / 23999.2 0.9-1.4 7.6
2019-Oct-13 12:00N 63°30' W 038°30'8 8.0 320 / 16999.8 1.3-2.3 7.7
2019-Oct-13 11:00N 63°36' W 038°18'1313.3 300 / 141000.1 1.9-3.1 7.7
2019-Oct-13 10:00N 63°36' W 037°48'8 8.0 270 / 101000.6 1.5-3.8 7.8
2019-Oct-13 09:00N 63°36' W 037°30'7 3.3 270 / 81001.1 1.4-4.3 7.7
2019-Oct-13 07:00N 63°42' W 037°24'0 0.0 290 / 81001.8 2.1-4.2 7.5
2019-Oct-13 06:00N 63°42' W 037°24'0 0.0 310 / 81002.4 2.5-2.9 7.8
2019-Oct-13 05:00N 63°42' W 037°24'7 6.6 350 / 101002.7 2.1-1.0 7.7
2019-Oct-13 04:00N 63°48' W 037°18'0 0.0 340 / 141002.8 1.9-0.1 7.5
2019-Oct-13 03:00N 63°48' W 037°18'0 0.0 340 / 101003.2 2.9 0.6 7.4
2019-Oct-13 02:00N 63°48' W 037°18'6 6.0 310 / 121003.9 3.1 0.7 7.3
2019-Oct-13 01:00N 63°54' W 037°18'0 0.0 330 / 101004.1 3.4 1.6 7.2
2019-Oct-13 00:00N 63°54' W 037°18'1212.3 330 / 141004.1 3.1 0.5 7.5
2019-Oct-12 23:00N 64°06' W 037°12'1212.0 310 / 121004.1 2.3 0.9 5.9
2019-Oct-12 22:00N 64°18' W 037°12'1212.3 330 / 61004.4 2.6-0.6 5.4
2019-Oct-12 21:00N 64°30' W 037°06'1212.3 040 / 41004.4 2.7-0.8 5.8
2019-Oct-12 20:00N 64°42' W 037°00'1212.0 060 / 161004.5 3.3-1.7 6.2
2019-Oct-12 19:00N 64°54' W 037°00'1212.3 060 / 191004.6 2.2-1.0 7.4
2019-Oct-12 18:00N 65°06' W 036°54'10 9.7 050 / 191004.9 0.9-0.2 3.2
2019-Oct-12 17:00N 65°12' W 036°36'5 5.0 040 / 161005.2 0.5-0.3 4.5
2019-Oct-12 16:00N 65°12' W 036°24'0 0.0 040 / 211005.2 0.9-0.2 5.0
2019-Oct-12 15:00N 65°12' W 036°24'0 0.0 030 / 191005.4 0.9-0.3 4.9
2019-Oct-12 14:00N 65°12' W 036°24'0 0.0 050 / 161006.0 3.2 1.8 4.7
2019-Oct-12 13:00N 65°12' W 036°24'7 6.5 040 / 161006.4 3.1 0.5 4.9
2019-Oct-12 12:00N 65°06' W 036°18'13 6.5 020 / 141005.9 2.0-0.0 3.6
2019-Oct-12 10:00N 64°54' W 036°06'3 2.5 360 / 41006.6 2.2-0.9 3.4
2019-Oct-12 09:00N 64°54' W 036°00'3 2.5 350 / 41007.0 1.8-0.5 2.5
2019-Oct-12 08:00N 64°54' W 036°06'3 2.5 350 / 41007.2 1.7-0.2 5.3
2019-Oct-12 07:00N 64°54' W 036°00'3 2.5 050 / 61007.7 1.5-0.3 3.0
2019-Oct-12 06:00N 64°54' W 036°06'0 0.0 1007.9 2.5-0.5 4.9
2019-Oct-12 05:00N 64°54' W 036°06'0 0.0 150 / 41008.4 2.4-0.3 8.0
2019-Oct-12 04:00N 64°54' W 036°06'6 6.0 1009.2 2.1 0.1 7.9
2019-Oct-12 03:00N 64°48' W 036°06'3 2.6 310 / 41010.2 1.9 0.6 7.8
2019-Oct-12 02:00N 64°48' W 036°12'0 0.0 280 / 101011.2 2.3 0.3 7.6
2019-Oct-12 01:00N 64°48' W 036°12'0 0.0 260 / 101011.9 2.2 0.8 7.3
2019-Oct-12 00:00N 64°48' W 036°12'8 7.9 270 / 141012.2 2.3-0.0 6.9
2019-Oct-11 23:00N 64°42' W 036°00'1211.9 1012.5 4.0-1.6 7.1
2019-Oct-11 22:00N 64°36' W 035°36'8 7.9 080 / 81013.0 4.4-2.4 8.0
2019-Oct-11 21:00N 64°30' W 035°24'8 7.9 030 / 81013.5 4.2-3.2 8.1
2019-Oct-11 20:00N 64°24' W 035°36'8 7.9 020 / 81013.9 4.4-3.5 8.1
2019-Oct-11 19:00N 64°18' W 035°48'5 5.2 030 / 81013.8 4.2-3.0 8.1
2019-Oct-11 18:00N 64°18' W 036°00'0 0.0 020 / 81014.6 4.1-2.3 8.1
2019-Oct-11 17:00N 64°18' W 036°00'1212.0 020 / 81015.2 4.0-2.1 8.0
2019-Oct-11 16:00N 64°24' W 036°24'1010.4 020 / 81015.6 4.0-2.0 7.7
2019-Oct-11 15:00N 64°24' W 036°48'1010.4 360 / 81016.3 4.0-1.8 7.1
2019-Oct-11 14:00N 64°24' W 037°12'0 0.0 340 / 61017.0 4.0-2.6 6.9
2019-Oct-11 13:00N 64°24' W 037°12'0 0.0 310 / 61017.2 3.7-2.3 6.9
2019-Oct-11 12:00N 64°24' W 037°12'3 2.6 340 / 41017.2 4.0-1.7 6.4
2019-Oct-11 11:00N 64°24' W 037°18'3 2.6 340 / 61017.3 3.6-2.2 5.6
2019-Oct-11 10:00N 64°24' W 037°12'0 0.0 330 / 81017.3 3.7-1.3 6.3
2019-Oct-11 09:00N 64°24' W 037°12'3 2.6 340 / 81017.2 3.7-1.3 6.6
2019-Oct-11 08:00N 64°24' W 037°18'3 1.3 350 / 81017.4 3.3-1.6 5.7
2019-Oct-11 06:00N 64°24' W 037°12'7 6.5 340 / 101017.0 3.7-1.9 6.5
2019-Oct-11 05:00N 64°18' W 037°18'0 0.0 360 / 101016.8 3.8-3.6 5.5
2019-Oct-11 04:00N 64°18' W 037°18'7 6.5 350 / 121017.0 3.8-1.8 5.9
2019-Oct-11 03:00N 64°12' W 037°24'6 6.0 360 / 141017.1 4.0-1.1 4.7
2019-Oct-11 02:00N 64°06' W 037°24'0 0.0 350 / 121017.0 4.0-0.3 5.4
2019-Oct-11 01:00N 64°06' W 037°24'7 6.5 010 / 171017.0 4.5-0.7 6.6
2019-Oct-11 00:00N 64°00' W 037°30'6 6.0 360 / 211016.6 4.4-0.5 6.1
2019-Oct-10 23:00N 63°54' W 037°30'0 0.0 010 / 231016.2 4.4-1.4 6.9
2019-Oct-10 22:00N 63°54' W 037°30'6 6.0 010 / 231015.8 4.4-1.1 6.9
2019-Oct-10 21:00N 63°48' W 037°30'0 0.0 020 / 231015.5 4.6-1.8 6.6
2019-Oct-10 20:00N 63°48' W 037°30'6 6.0 030 / 251015.1 5.0-0.9 7.8
2019-Oct-10 19:00N 63°42' W 037°30'7 6.6 030 / 271014.1 4.7 0.4 8.0
2019-Oct-10 18:00N 63°36' W 037°36'3 2.7 030 / 211014.0 5.4-0.7 8.1
2019-Oct-10 17:00N 63°36' W 037°42'3 2.7 020 / 191013.7 4.9 0.2 8.1
2019-Oct-10 16:00N 63°36' W 037°48'1010.0 020 / 211013.4 5.7 0.8 7.9
2019-Oct-10 15:00N 63°42' W 038°06'7 6.6 030 / 141013.4 5.5 2.2 7.2
2019-Oct-10 14:00N 63°48' W 038°00'1212.2 060 / 211013.5 4.1 0.4 7.3
2019-Oct-10 13:00N 63°54' W 038°24'3 2.6 040 / 141013.4 5.2 1.0 7.7
2019-Oct-10 12:00N 63°54' W 038°18'8 7.9 010 / 161013.0 5.1 1.4 7.6
2019-Oct-10 11:00N 63°54' W 038°36'3 1.3 020 / 121012.7 4.9 1.2 7.7
2019-Oct-10 09:00N 63°54' W 038°42'10 3.3 020 / 121011.8 4.8 0.7 7.7
2019-Oct-10 06:00N 63°48' W 038°24'7 6.6 010 / 141010.7 4.8 1.8 7.4
2019-Oct-10 05:00N 63°42' W 038°30'3 2.7 010 / 121010.8 5.2 1.7 7.7
2019-Oct-10 04:00N 63°42' W 038°36'7 2.2 010 / 121010.9 5.1 1.9 7.8
2019-Oct-10 01:00N 63°36' W 038°42'3 2.7 010 / 141011.6 5.0 1.9 8.0
2019-Oct-10 00:00N 63°36' W 038°48'6 6.0 010 / 141011.6 5.1 1.1 8.0
2019-Oct-09 23:00N 63°30' W 038°48'3 2.7 020 / 161011.7 5.3 1.4 8.0
2019-Oct-09 22:00N 63°30' W 038°54'24 6.0 010 / 161011.8 5.5 2.0 7.9
2019-Oct-09 18:00N 63°48' W 038°18'8 8.0 020 / 211011.8 5.0 0.8 7.6
2019-Oct-09 17:00N 63°54' W 038°06'0 0.0 010 / 291011.8 4.9 1.0 6.9
2019-Oct-09 16:00N 63°54' W 038°06'3 2.6 010 / 291011.8 5.3 1.2 7.1
2019-Oct-09 15:00N 63°54' W 038°12'0 0.0 010 / 291011.9 5.2 1.9 7.5
2019-Oct-09 14:00N 63°54' W 038°12'0 0.0 020 / 291011.7 5.4 1.8 7.8
2019-Oct-09 13:00N 63°54' W 038°12'3 2.6 010 / 311011.3 5.4 2.1 7.7
2019-Oct-09 12:00N 63°54' W 038°18'0 0.0 010 / 291010.8 5.3 2.7 7.7
2019-Oct-09 11:00N 63°54' W 038°18'0 0.0 010 / 291010.4 5.5 3.1 7.7
2019-Oct-09 10:00N 63°54' W 038°18'0 0.0 360 / 291009.9 5.2 2.7 7.7
2019-Oct-09 09:00N 63°54' W 038°18'3 2.6 010 / 291009.6 4.9 2.8 7.4
2019-Oct-09 08:00N 63°54' W 038°24'0 0.0 010 / 371009.0 4.3 2.0 7.6
2019-Oct-09 07:00N 63°54' W 038°24'7 6.6 020 / 331009.5 4.4 2.3 7.6
2019-Oct-09 06:00N 63°48' W 038°30'0 0.0 020 / 271009.3 4.7 2.5 7.5
2019-Oct-09 05:00N 63°48' W 038°30'0 0.0 360 / 171008.8 5.5 3.4 7.7
2019-Oct-09 04:00N 63°48' W 038°30'3 2.6 360 / 161008.4 5.5 3.9 7.8
2019-Oct-09 03:00N 63°48' W 038°36'3 2.6 350 / 191008.0 5.1 2.4 7.7
2019-Oct-09 02:00N 63°48' W 038°42'0 0.0 350 / 231007.6 5.3 0.4 7.7
2019-Oct-09 01:00N 63°48' W 038°42'1212.2 350 / 211006.7 5.3-0.2 7.7
2019-Oct-09 00:00N 63°54' W 038°18'10 9.9 350 / 191006.1 5.3-0.2 7.8
2019-Oct-08 23:00N 64°00' W 038°00'1414.3 340 / 171005.8 4.6 1.0 5.9
2019-Oct-08 22:00N 64°12' W 037°42'10 9.9 350 / 171004.9 5.3 3.0 5.3
2019-Oct-08 21:00N 64°18' W 037°24'1615.9 360 / 171004.4 5.7 2.4 6.1
2019-Oct-08 20:00N 64°30' W 037°00'10 9.8 340 / 161003.3 5.8 1.7 6.2
2019-Oct-08 19:00N 64°36' W 036°42'10 9.8 340 / 171002.5 6.5 2.6 6.3
2019-Oct-08 18:00N 64°42' W 036°24'1615.8 320 / 191001.0 6.5 1.5 7.2
2019-Oct-08 17:00N 64°54' W 036°00'10 9.7 340 / 161000.4 5.3 1.1 7.4
2019-Oct-08 16:00N 65°00' W 035°42'10 9.7 350 / 171000.3 5.3-0.0 4.2
2019-Oct-08 15:00N 65°06' W 035°24'1414.2 360 / 141000.0 5.6 0.7 2.9
2019-Oct-08 14:00N 65°18' W 035°06'3 2.5 360 / 10999.2 4.5 1.0 2.6
2019-Oct-08 13:00N 65°18' W 035°12'5 5.0 340 / 10999.0 3.7 1.6 2.6
2019-Oct-08 12:00N 65°18' W 035°00'1211.7 330 / 12998.8 5.5 1.7 6.0
2019-Oct-08 11:00N 65°24' W 034°36'5 5.0 350 / 16998.1 5.8 2.5 5.7
2019-Oct-08 10:00N 65°24' W 034°24'6 6.5 360 / 16997.6 6.2 2.3 7.6
2019-Oct-08 09:00N 65°30' W 034°18'0 0.0 010 / 12997.4 5.7 2.3 7.1
2019-Oct-08 08:00N 65°30' W 034°18'2 2.5 010 / 16997.0 5.1 1.9 7.1
2019-Oct-08 07:00N 65°30' W 034°24'0 0.0 010 / 17996.7 5.2 2.2 7.0
2019-Oct-08 06:00N 65°30' W 034°24'2 2.5 030 / 17996.3 5.6 2.6 6.9
2019-Oct-08 05:00N 65°30' W 034°18'2 2.5 040 / 17996.1 5.4 3.4 7.3
2019-Oct-08 04:00N 65°30' W 034°12'5 5.0 030 / 21995.3 5.7 3.6 7.8
2019-Oct-08 03:00N 65°30' W 034°00'5 5.0 030 / 23995.1 5.8 3.9 7.8
2019-Oct-08 02:00N 65°30' W 033°48'6 6.5 030 / 27994.5 5.9 3.9 7.6
2019-Oct-08 01:00N 65°24' W 033°42'6 6.0 020 / 25994.6 6.0 4.2 7.8
2019-Oct-08 00:00N 65°30' W 033°42'5 5.0 020 / 23994.5 5.8 3.4 7.8
2019-Oct-07 23:00N 65°30' W 033°54'2 2.5 010 / 21994.6 6.1 2.4 7.9
2019-Oct-07 22:00N 65°30' W 034°00'2 2.5 350 / 19994.7 6.1 2.0 7.8
2019-Oct-07 21:00N 65°30' W 034°06'6 6.0 350 / 17995.0 5.9 1.6 7.8
2019-Oct-07 20:00N 65°24' W 034°06'8 7.8 350 / 19994.9 5.6 2.0 7.9
2019-Oct-07 19:00N 65°30' W 033°54'0 0.0 360 / 19995.0 4.6 2.6 7.7
2019-Oct-07 18:00N 65°30' W 033°54'7 7.5 360 / 23994.9 4.0 2.6 7.7
2019-Oct-07 17:00N 65°30' W 033°36'0 0.0 360 / 21994.7 4.1 3.2 7.8
2019-Oct-07 16:00N 65°30' W 033°36'13 6.5 350 / 17994.7 5.0 3.3 7.9
2019-Oct-07 14:00N 65°18' W 033°24'8 7.8 360 / 19995.5 6.0 4.2 8.3
2019-Oct-07 13:00N 65°24' W 033°12'1010.0 010 / 21995.9 6.6 4.5 8.6
2019-Oct-07 12:00N 65°24' W 032°48'6 6.5 020 / 14996.0 6.6 4.4 8.7
2019-Oct-07 11:00N 65°30' W 032°42'5 2.5 030 / 21996.5 6.5 4.4 8.6
2019-Oct-07 09:00N 65°30' W 032°30'2 1.2 030 / 21996.7 5.1 4.4 8.6
2019-Oct-07 07:00N 65°30' W 032°24'6 6.5 010 / 25997.6 5.2 5.1 8.6
2019-Oct-07 06:00N 65°36' W 032°18'8 7.8 010 / 19998.1 5.2 4.9 8.4
2019-Oct-07 05:00N 65°42' W 032°06'6 6.5 010 / 17998.4 5.8 5.8 8.2
2019-Oct-07 04:00N 65°48' W 032°00'8 7.8 030 / 17999.3 6.0 5.8 8.2
2019-Oct-07 03:00N 65°54' W 031°48'2 2.4 030 / 161000.1 6.0 5.8 5.9
2019-Oct-07 02:00N 65°54' W 031°42'8 7.7 040 / 161000.3 6.2 5.6 5.5
2019-Oct-07 01:00N 66°00' W 031°30'5 4.9 040 / 141000.5 6.8 6.5 5.8
2019-Oct-07 00:00N 66°00' W 031°18'9 9.5 030 / 161000.7 6.4 5.9 5.7
2019-Oct-06 23:00N 65°54' W 031°00'9 9.5 050 / 141000.8 7.4 6.7 7.0
2019-Oct-06 22:00N 65°48' W 030°42'2110.3 070 / 141000.8 8.2 7.3 7.8
2019-Oct-06 20:00N 65°30' W 030°18'0 0.0 080 / 141000.4 8.8 7.1 8.4
2019-Oct-06 19:00N 65°30' W 030°18'2 2.5 080 / 141000.5 8.9 7.7 8.6
2019-Oct-06 18:00N 65°30' W 030°12'5 5.0 100 / 121000.5 9.9 7.9 8.5
2019-Oct-06 17:00N 65°30' W 030°00'6 6.5 120 / 121000.3 9.2 7.4 7.4
2019-Oct-06 16:00N 65°36' W 030°06'2 2.5 120 / 121000.4 9.0 7.4 8.4
2019-Oct-06 15:00N 65°36' W 030°00'10 9.5 130 / 161000.6 9.2 7.3 8.4
2019-Oct-06 14:00N 65°42' W 029°42'0 0.0 120 / 161000.7 9.1 7.6 8.6
2019-Oct-06 13:00N 65°42' W 029°42'6 6.0 110 / 121000.3 8.9 7.3 7.6
2019-Oct-06 12:00N 65°48' W 029°42'0 0.0 120 / 141000.2 8.8 7.5 8.3
2019-Oct-06 11:00N 65°48' W 029°42'9 9.5 130 / 14999.9 9.1 7.7 8.2
2019-Oct-06 10:00N 65°54' W 029°24'10 9.8 130 / 16999.8 9.1 7.6 8.1
2019-Oct-06 09:00N 65°54' W 029°00'1413.6 130 / 19999.5 9.0 8.0 6.1
2019-Oct-06 08:00N 66°00' W 028°30'10 9.8 140 / 17999.5 9.1 7.8 8.5
2019-Oct-06 07:00N 66°00' W 028°06'1413.6 140 / 17999.4 8.9 8.0 8.6
2019-Oct-06 06:00N 66°06' W 027°36'1212.2 130 / 17999.0 8.7 8.1 7.9
2019-Oct-06 05:00N 66°06' W 027°06'1111.4 140 / 17999.0 7.3 6.8 3.8
2019-Oct-06 04:00N 66°12' W 026°42'10 9.7 130 / 14999.1 8.0 7.5 6.4
2019-Oct-06 03:00N 66°12' W 026°18'1313.5 160 / 21998.5 8.1 7.8 8.5
2019-Oct-06 02:00N 66°18' W 025°48'10 9.6 150 / 16998.1 9.1 8.1 8.4
2019-Oct-06 01:00N 66°18' W 025°24'1111.3 140 / 12998.0 9.2 8.1 8.7
2019-Oct-06 00:00N 66°24' W 025°00'1212.0 150 / 10998.0 8.8 8.2 9.1
2019-Oct-05 23:00N 66°24' W 024°30'1111.3 130 / 8997.4 9.6 7.6 8.7
2019-Oct-05 22:00N 66°30' W 024°06'1212.0 120 / 16997.2 9.8 6.6 8.8
2019-Oct-05 21:00N 66°30' W 023°36'1212.0 110 / 16997.3 10.3 6.3 8.5
2019-Oct-05 20:00N 66°30' W 023°06'1212.0 100 / 19998.0 10.6 5.9 8.9
2019-Oct-05 19:00N 66°30' W 022°36'1212.0 120 / 12998.7 8.6 5.9 8.4
2019-Oct-05 18:00N 66°30' W 022°06'1111.3 110 / 17999.0 8.8 5.1 8.1
2019-Oct-05 17:00N 66°24' W 021°42'10 9.6 090 / 16999.3 8.5 5.2 7.8
2019-Oct-05 16:00N 66°24' W 021°18'1111.3 100 / 16999.6 8.7 4.3 6.8
2019-Oct-05 15:00N 66°18' W 020°54'6 6.5 100 / 17999.9 9.0 3.7 6.4
2019-Oct-05 14:00N 66°12' W 021°00'6 6.0 090 / 161000.0 8.4 3.9 6.6
2019-Oct-05 13:00N 66°18' W 021°00'0 0.0 080 / 141000.4 9.1 3.2 6.5
2019-Oct-05 12:00N 66°18' W 021°00'2 2.4 060 / 141001.0 8.6 2.6 6.5
2019-Oct-05 11:00N 66°18' W 020°54'0 0.0 060 / 101001.7 8.2 3.2 6.6
2019-Oct-05 10:00N 66°18' W 020°54'6 6.5 120 / 61002.2 8.7 2.0 6.5
2019-Oct-05 09:00N 66°12' W 021°00'6 6.0 110 / 121001.8 9.1-0.0 6.8
2019-Oct-05 08:00N 66°18' W 021°00'0 0.0 090 / 121001.9 7.8 2.4 6.6
2019-Oct-05 07:00N 66°18' W 021°00'0 0.0 080 / 81002.3 8.8-0.4 6.5
2019-Oct-05 06:00N 66°18' W 021°00'2 2.4 080 / 101002.4 7.9 2.8 6.5
2019-Oct-05 05:00N 66°18' W 020°54'5 4.8 080 / 161002.7 8.5 0.7 6.3
2019-Oct-05 04:00N 66°18' W 020°42'1212.1 090 / 141003.5 8.1 3.3 6.8
2019-Oct-05 03:00N 66°18' W 020°12'1212.1 090 / 61004.1 7.9 3.2 7.1
2019-Oct-05 02:00N 66°18' W 019°42'10 9.6 160 / 41005.6 8.3 1.5 7.1
2019-Oct-05 01:00N 66°18' W 019°18'1212.1 130 / 161005.7 8.9 2.0 7.1
2019-Oct-05 00:00N 66°18' W 018°48'1212.1 150 / 371006.5 8.3 2.0 7.0
2019-Oct-04 23:00N 66°18' W 018°18'1111.3 110 / 291008.0 8.2 2.7 6.9
2019-Oct-04 22:00N 66°24' W 017°54'1212.0 140 / 291009.8 7.9 2.8 7.2
2019-Oct-04 21:00N 66°24' W 017°24'1313.4 120 / 251011.8 7.4 2.5 7.3
2019-Oct-04 20:00N 66°30' W 016°54'1111.3 120 / 161013.2 7.4 2.0 7.3
2019-Oct-04 19:00N 66°36' W 016°30'1313.3 120 / 231013.8 7.1 3.4 7.2
2019-Oct-04 18:00N 66°42' W 016°00'1111.2 130 / 271014.8 7.4 4.1 6.9
2019-Oct-04 17:00N 66°36' W 015°36'1211.9 140 / 271015.3 7.3 3.7 7.2
2019-Oct-04 16:00N 66°36' W 015°06'1211.9 150 / 271016.1 7.5 2.8 7.1
2019-Oct-04 15:00N 66°36' W 014°36'1313.4 150 / 271017.0 7.5 2.0 7.1
2019-Oct-04 14:00N 66°30' W 014°06'1312.9 140 / 251017.7 10.7 2.5 7.1
2019-Oct-04 13:00N 66°18' W 013°54'1312.9 140 / 211018.6 7.4 2.8 7.2
2019-Oct-04 12:00N 66°06' W 013°42'1313.0 150 / 171019.4 7.5 3.3 7.1
2019-Oct-04 11:00N 65°54' W 013°30'1313.0 150 / 191020.0 7.4 1.8 7.2
2019-Oct-04 10:00N 65°42' W 013°18'1313.0 140 / 171020.1 7.4 2.6 7.1
2019-Oct-04 09:00N 65°30' W 013°06'   140 / 171020.0 7.7 1.0 7.1

Dump ship's entire track history